Time;durP1;ratioP1;P1;durP2;ratioP2;P2;SDS_P1;SDS_P2;PMS_P1;PMS_P2;Temp;Humidity;BMP_temperature;BMP_pressure;BME280_temperature;BME280_humidity;BME280_pressure;Samples;Min_cycle;Max_cycle;Signal;HPM_P1;HPM_P2
2022/04/01 00:00:08;;;;;;;8.57;3.70;;;1.30;99.90;;;;;;5051661;28;20209;-90
2022/04/01 00:02:35;;;;;;;6.60;3.53;;;1.30;99.90;;;;;;5051531;28;20641;-84
2022/04/01 00:05:04;;;;;;;4.97;3.73;;;1.30;99.90;;;;;;5052460;28;20213;-89
2022/04/01 00:07:30;;;;;;;4.77;3.63;;;1.30;99.90;;;;;;5052030;28;20202;-87
2022/04/01 00:09:57;;;;;;;4.03;3.13;;;1.20;99.90;;;;;;5067183;28;20212;-88
2022/04/01 00:12:24;;;;;;;4.83;3.27;;;1.20;99.90;;;;;;5071569;28;20204;-87
2022/04/01 00:14:51;;;;;;;6.17;3.10;;;1.30;99.90;;;;;;5071246;28;20217;-85
2022/04/01 00:17:18;;;;;;;5.47;2.93;;;1.30;99.90;;;;;;5070234;28;20683;-88
2022/04/01 00:19:44;;;;;;;3.93;3.03;;;1.20;99.90;;;;;;5072201;28;20208;-85
2022/04/01 00:22:13;;;;;;;5.40;3.17;;;1.30;99.90;;;;;;5071416;28;20232;-85
2022/04/01 00:24:39;;;;;;;5.37;3.10;;;1.20;99.90;;;;;;5071960;28;20216;-85
2022/04/01 00:27:06;;;;;;;3.43;2.67;;;1.30;99.90;;;;;;5071227;28;20216;-88
2022/04/01 00:29:33;;;;;;;2.53;2.30;;;1.30;99.90;;;;;;5071272;28;20205;-91
2022/04/01 00:32:00;;;;;;;3.57;2.50;;;1.30;99.90;;;;;;5057463;28;20206;-91
2022/04/01 00:34:28;;;;;;;3.83;2.80;;;1.20;99.90;;;;;;5049908;28;20904;-87
2022/04/01 00:36:57;;;;;;;2.47;2.07;;;1.20;99.90;;;;;;5046762;28;20205;-86
2022/04/01 00:39:29;;;;;;;3.53;2.37;;;1.20;99.90;;;;;;5049416;28;20198;-86
2022/04/01 00:41:57;;;;;;;3.17;2.27;;;1.20;99.90;;;;;;5079699;28;20319;-88
2022/04/01 00:44:26;;;;;;;4.80;2.10;;;1.20;99.90;;;;;;5091588;28;20201;-89
2022/04/01 00:46:55;;;;;;;3.83;2.30;;;1.20;99.90;;;;;;5058877;28;20615;-84
2022/04/01 00:49:22;;;;;;;2.97;1.80;;;1.20;99.90;;;;;;5053914;28;20216;-86
2022/04/01 00:51:51;;;;;;;2.57;1.77;;;1.20;99.90;;;;;;5070930;28;20205;-86
2022/04/01 00:54:20;;;;;;;2.60;1.70;;;1.20;99.90;;;;;;5071247;28;20204;-84
2022/04/01 00:56:48;;;;;;;3.00;2.03;;;1.20;99.90;;;;;;5070919;28;20589;-88
2022/04/01 00:59:15;;;;;;;2.67;1.83;;;1.20;99.90;;;;;;5068788;28;20212;-87
2022/04/01 01:01:44;;;;;;;2.40;1.63;;;1.20;99.90;;;;;;5050689;28;20578;-86
2022/04/01 01:04:13;;;;;;;2.30;1.87;;;1.30;99.90;;;;;;5051267;28;20275;-85
2022/04/01 01:06:42;;;;;;;3.07;2.30;;;1.30;99.90;;;;;;5050787;28;20559;-88
2022/04/01 01:09:09;;;;;;;3.47;1.87;;;1.30;99.90;;;;;;5051390;28;20233;-84
2022/04/01 01:11:36;;;;;;;3.23;1.97;;;1.30;99.90;;;;;;5050634;28;20206;-88
2022/04/01 01:14:07;;;;;;;5.03;2.30;;;1.30;99.90;;;;;;5051393;28;20264;-85
2022/04/01 01:16:35;;;;;;;3.47;1.80;;;1.30;99.90;;;;;;5063816;28;20321;-85
2022/04/01 01:19:03;;;;;;;3.10;2.37;;;1.30;99.90;;;;;;5070853;28;20255;-89
2022/04/01 01:21:31;;;;;;;2.67;2.30;;;1.30;99.90;;;;;;5067139;28;20297;-85
2022/04/01 01:24:03;;;;;;;2.10;1.67;;;1.40;99.90;;;;;;5050878;28;20824;-87
2022/04/01 01:26:32;;;;;;;3.13;1.83;;;1.40;99.90;;;;;;5056488;28;20204;-86
2022/04/01 01:29:00;;;;;;;2.27;1.50;;;1.30;99.90;;;;;;5071079;28;20211;-86
2022/04/01 01:31:27;;;;;;;3.93;1.37;;;1.30;99.90;;;;;;5071098;28;20602;-85
2022/04/01 01:33:55;;;;;;;1.90;1.50;;;1.30;99.90;;;;;;5041113;28;20985;-87
2022/04/01 01:36:23;;;;;;;2.57;1.53;;;1.30;99.90;;;;;;5053032;28;20210;-85
2022/04/01 01:38:50;;;;;;;4.23;1.63;;;1.30;99.90;;;;;;5071012;28;20937;-87
2022/04/01 01:41:17;;;;;;;2.97;1.77;;;1.30;99.90;;;;;;5071495;28;20637;-87
2022/04/01 01:43:46;;;;;;;2.47;1.60;;;1.30;99.90;;;;;;5071942;28;20523;-87
2022/04/01 01:46:13;;;;;;;3.87;2.20;;;1.40;99.90;;;;;;5071917;28;20314;-89
2022/04/01 01:48:40;;;;;;;2.77;1.87;;;1.40;99.90;;;;;;5074974;28;20197;-86
2022/04/01 01:56:37;;;;;;;6.63;2.50;;;1.40;99.90;;;;;;5086842;28;20204;-85
2022/04/01 01:59:05;;;;;;;4.53;2.10;;;1.40;99.90;;;;;;5065837;28;20218;-88
2022/04/01 02:01:32;;;;;;;2.67;2.07;;;1.40;99.90;;;;;;5060293;28;20220;-87
2022/04/01 02:04:01;;;;;;;4.10;2.00;;;1.40;99.90;;;;;;5055139;28;20625;-87
2022/04/01 02:06:28;;;;;;;2.53;1.77;;;1.50;99.90;;;;;;5055128;28;20681;-85
2022/04/01 02:08:54;;;;;;;2.47;1.67;;;1.50;99.90;;;;;;5069468;28;20224;-87
2022/04/01 02:11:22;;;;;;;3.00;1.80;;;1.50;99.90;;;;;;5061587;28;20201;-86
2022/04/01 02:13:50;;;;;;;2.23;1.70;;;1.50;99.90;;;;;;5047783;28;20226;-84
2022/04/01 02:16:21;;;;;;;4.73;1.83;;;1.60;99.90;;;;;;5047908;28;20214;-83
2022/04/01 02:18:49;;;;;;;1.90;1.70;;;1.70;99.90;;;;;;5050435;28;20205;-86
2022/04/01 02:21:16;;;;;;;4.10;1.60;;;1.70;99.90;;;;;;5053174;28;20551;-85
2022/04/01 02:23:45;;;;;;;3.70;1.40;;;1.80;99.90;;;;;;5053313;28;20227;-87
2022/04/01 02:26:13;;;;;;;2.43;1.57;;;1.90;99.90;;;;;;5056262;28;20324;-83
2022/04/01 02:28:40;;;;;;;2.23;2.00;;;1.90;99.90;;;;;;5053202;28;20229;-84
2022/04/01 02:31:08;;;;;;;3.83;2.00;;;1.90;99.90;;;;;;5052812;28;20221;-85
2022/04/01 02:33:37;;;;;;;3.77;1.77;;;1.90;99.90;;;;;;5053070;28;20194;-86
2022/04/01 02:36:09;;;;;;;4.33;1.63;;;1.90;99.90;;;;;;5052929;28;20197;-87
2022/04/01 02:38:35;;;;;;;3.33;1.83;;;1.90;99.90;;;;;;5053243;28;20236;-86
2022/04/01 02:41:02;;;;;;;3.20;2.13;;;1.90;99.90;;;;;;5053304;28;20244;-85
2022/04/01 02:43:29;;;;;;;3.57;1.70;;;1.90;99.90;;;;;;5059523;28;20225;-83
2022/04/01 02:45:56;;;;;;;4.83;1.93;;;1.90;99.90;;;;;;5071647;28;20213;-83
2022/04/01 02:48:23;;;;;;;4.90;2.00;;;1.90;99.90;;;;;;5071158;28;20210;-83
2022/04/01 02:50:51;;;;;;;3.00;1.77;;;1.90;99.90;;;;;;5070482;28;20597;-84
2022/04/01 02:53:17;;;;;;;1.80;1.67;;;1.90;99.90;;;;;;5071247;28;20216;-85
2022/04/01 02:55:45;;;;;;;2.53;1.80;;;1.90;99.90;;;;;;5071389;28;20593;-84
2022/04/01 02:58:12;;;;;;;2.93;1.53;;;1.90;99.90;;;;;;5060394;28;20221;-83
2022/04/01 03:00:39;;;;;;;2.73;1.67;;;2.00;99.90;;;;;;5052124;28;20202;-84
2022/04/01 03:03:08;;;;;;;2.03;1.40;;;2.00;99.90;;;;;;5051068;28;20221;-84
2022/04/01 03:05:35;;;;;;;3.37;1.70;;;2.00;99.90;;;;;;5068989;28;20245;-82
2022/04/01 03:08:05;;;;;;;4.43;1.60;;;2.10;99.90;;;;;;5071901;28;20205;-81
2022/04/01 03:10:32;;;;;;;3.37;1.50;;;2.10;99.90;;;;;;5070734;28;20288;-82
2022/04/01 03:12:59;;;;;;;2.33;1.30;;;2.10;99.90;;;;;;5070983;28;20637;-82
2022/04/01 03:15:28;;;;;;;1.70;1.20;;;2.10;99.90;;;;;;5071698;28;20832;-81
2022/04/01 03:17:55;;;;;;;2.03;1.60;;;2.20;99.90;;;;;;5071256;28;20599;-82
2022/04/01 03:20:22;;;;;;;4.80;2.33;;;2.20;99.90;;;;;;5071201;28;20665;-83
2022/04/01 03:22:50;;;;;;;6.00;1.77;;;2.20;99.90;;;;;;5070122;28;20605;-82
2022/04/01 03:25:20;;;;;;;4.27;1.80;;;2.20;99.90;;;;;;5071886;28;20205;-83
2022/04/01 03:27:48;;;;;;;3.50;1.50;;;2.20;99.90;;;;;;5071508;28;20196;-84
2022/04/01 03:30:17;;;;;;;3.43;2.07;;;2.20;99.90;;;;;;5059876;28;20216;-82
2022/04/01 03:32:45;;;;;;;3.93;1.53;;;2.30;99.90;;;;;;5051682;28;20235;-82
2022/04/01 03:35:15;;;;;;;1.77;1.47;;;2.30;99.90;;;;;;5052149;28;20496;-86
2022/04/01 03:37:42;;;;;;;1.87;1.70;;;2.30;99.90;;;;;;5051196;28;20198;-82
2022/04/01 03:40:10;;;;;;;2.27;1.70;;;2.30;99.90;;;;;;5048450;28;20206;-83
2022/04/01 03:42:39;;;;;;;4.47;1.97;;;2.30;99.90;;;;;;5047983;28;20206;-83
2022/04/01 03:45:07;;;;;;;4.37;2.07;;;2.30;99.90;;;;;;5050941;28;20666;-82
2022/04/01 03:47:40;;;;;;;1.60;1.50;;;2.30;99.90;;;;;;5056306;28;20205;-83
2022/04/01 03:50:09;;;;;;;3.13;1.53;;;2.30;99.90;;;;;;5070917;28;20208;-82
2022/04/01 03:52:36;;;;;;;4.63;1.63;;;2.30;99.90;;;;;;5070796;28;20207;-84
2022/04/01 03:55:06;;;;;;;4.10;1.47;;;2.40;99.90;;;;;;5071218;28;20205;-85
2022/04/01 03:57:35;;;;;;;4.03;1.57;;;2.40;99.90;;;;;;5070840;28;20209;-81
2022/04/01 04:00:07;;;;;;;4.87;1.63;;;2.40;99.90;;;;;;5070598;28;20205;-81
2022/04/01 04:02:35;;;;;;;1.60;1.50;;;2.40;99.90;;;;;;5056482;28;20218;-81
2022/04/01 04:05:04;;;;;;;2.50;1.43;;;2.40;99.90;;;;;;5057058;28;20222;-79
2022/04/01 04:07:33;;;;;;;2.97;1.57;;;2.40;99.90;;;;;;5062473;28;20209;-80
2022/04/01 04:10:00;;;;;;;2.60;1.60;;;2.40;99.90;;;;;;5070192;28;20208;-82
2022/04/01 04:12:30;;;;;;;4.57;1.97;;;2.40;99.90;;;;;;5072435;28;20197;-81
2022/04/01 04:14:58;;;;;;;4.13;1.40;;;2.40;99.90;;;;;;5060535;28;20312;-82
2022/04/01 04:17:42;;;;;;;2.77;1.70;;;2.40;99.90;;;;;;5065201;28;20474;-82
2022/04/01 04:20:13;;;;;;;2.23;1.70;;;2.40;99.90;;;;;;5062922;28;20219;-81
2022/04/01 04:22:52;;;;;;;2.23;1.60;;;2.40;99.90;;;;;;5064705;28;20592;-81
2022/04/01 04:25:25;;;;;;;3.20;1.43;;;2.40;99.90;;;;;;5066535;28;20225;-81
2022/04/01 04:27:57;;;;;;;6.00;1.63;;;2.50;99.90;;;;;;5064859;28;20220;-82
2022/04/01 04:30:33;;;;;;;4.53;1.43;;;2.40;99.90;;;;;;5071415;28;20621;-83
2022/04/01 04:33:05;;;;;;;3.43;1.70;;;2.50;99.90;;;;;;5070495;28;20679;-83
2022/04/01 04:35:35;;;;;;;3.83;1.60;;;2.50;99.90;;;;;;5077192;28;20667;-82
2022/04/01 04:38:02;;;;;;;2.93;1.67;;;2.50;99.90;;;;;;5072614;28;20209;-82
2022/04/01 04:40:31;;;;;;;4.60;2.00;;;2.40;99.90;;;;;;5076006;28;20229;-82
2022/04/01 04:42:59;;;;;;;3.77;1.50;;;2.40;99.90;;;;;;5060345;28;20208;-81
2022/04/01 04:45:27;;;;;;;3.33;1.30;;;2.50;99.90;;;;;;5076356;28;20237;-82
2022/04/01 04:47:54;;;;;;;3.57;1.40;;;2.50;99.90;;;;;;5054908;28;20202;-82
2022/04/01 04:50:23;;;;;;;4.57;1.43;;;2.50;99.90;;;;;;5055525;28;20212;-81
2022/04/01 04:52:53;;;;;;;4.77;1.60;;;2.50;99.90;;;;;;5051607;28;20591;-82
2022/04/01 04:55:20;;;;;;;4.87;1.47;;;2.50;99.90;;;;;;5052582;28;20247;-83
2022/04/01 04:57:49;;;;;;;3.50;1.60;;;2.50;99.90;;;;;;5069764;28;20198;-81
2022/04/01 05:00:19;;;;;;;2.83;1.70;;;2.50;99.90;;;;;;5069587;28;20197;-83
2022/04/01 05:03:00;;;;;;;6.90;1.87;;;2.60;99.90;;;;;;5062308;28;20316;-82
2022/04/01 05:05:36;;;;;;;4.77;1.70;;;2.60;99.90;;;;;;5049280;28;20226;-82
2022/04/01 05:08:08;;;;;;;7.60;1.80;;;2.60;99.90;;;;;;5049433;28;20200;-82
2022/04/01 05:10:41;;;;;;;4.43;1.60;;;2.50;99.90;;;;;;5053328;28;20214;-81
2022/04/01 05:13:13;;;;;;;3.23;1.80;;;2.60;99.90;;;;;;5045488;28;20908;-82
2022/04/01 05:15:42;;;;;;;2.83;1.60;;;2.50;99.90;;;;;;5063256;28;20275;-83
2022/04/01 05:18:12;;;;;;;1.77;1.30;;;2.50;99.90;;;;;;5068362;28;20200;-83
2022/04/01 05:20:47;;;;;;;3.47;1.97;;;2.60;99.90;;;;;;5069449;28;20205;-83
2022/04/01 05:23:16;;;;;;;2.63;1.40;;;2.60;99.90;;;;;;5060522;28;20260;-83
2022/04/01 05:25:45;;;;;;;1.60;1.47;;;2.60;99.90;;;;;;5052939;28;20257;-83
2022/04/01 05:28:22;;;;;;;7.63;2.80;;;2.60;99.90;;;;;;5051229;28;20212;-82
2022/04/01 05:30:56;;;;;;;5.73;1.40;;;2.60;99.90;;;;;;5051550;28;20749;-83
2022/04/01 05:33:34;;;;;;;3.33;2.13;;;2.70;99.90;;;;;;5052235;28;20201;-85
2022/04/01 05:36:04;;;;;;;4.97;1.50;;;2.60;99.90;;;;;;5052149;28;20255;-84
2022/04/01 05:38:34;;;;;;;3.50;1.93;;;2.70;99.90;;;;;;5052674;28;20209;-81
2022/04/01 05:41:02;;;;;;;6.80;1.53;;;2.70;99.90;;;;;;5051909;28;20225;-82
2022/04/01 05:43:30;;;;;;;3.43;1.50;;;2.70;99.90;;;;;;5051353;28;20210;-83
2022/04/01 05:45:57;;;;;;;3.07;1.43;;;2.80;99.90;;;;;;5050652;28;20253;-82
2022/04/01 05:48:27;;;;;;;1.53;1.30;;;2.80;99.90;;;;;;5057918;28;20237;-80
2022/04/01 05:50:54;;;;;;;4.23;1.60;;;2.80;99.90;;;;;;5051118;28;20210;-83
2022/04/01 05:53:23;;;;;;;5.50;1.60;;;2.90;99.90;;;;;;5051260;28;20996;-82
2022/04/01 05:55:52;;;;;;;3.50;1.70;;;3.00;99.90;;;;;;5053391;28;20194;-82
2022/04/01 05:58:19;;;;;;;5.33;1.40;;;3.00;99.90;;;;;;5051580;28;20198;-80
2022/04/01 06:01:03;;;;;;;3.00;1.30;;;3.00;99.90;;;;;;5051701;28;20216;-82
2022/04/01 06:04:08;;;;;;;3.93;1.20;;;3.00;99.90;;;;;;5051665;28;20480;-83
2022/04/01 06:06:40;;;;;;;7.77;2.23;;;3.10;99.90;;;;;;5051530;28;20209;-84
2022/04/01 06:09:20;;;;;;;2.67;1.33;;;3.10;99.90;;;;;;5052819;28;20202;-87
2022/04/01 06:12:01;;;;;;;1.40;1.20;;;3.10;99.90;;;;;;5033285;28;20240;-85
2022/04/01 06:14:36;;;;;;;4.20;1.60;;;3.10;99.90;;;;;;5064713;28;20224;-85
2022/04/01 06:17:09;;;;;;;2.90;1.70;;;3.10;99.90;;;;;;5072453;28;20197;-82
2022/04/01 06:19:44;;;;;;;2.13;1.30;;;3.20;99.90;;;;;;5070831;28;20516;-84
2022/04/01 06:22:14;;;;;;;2.20;1.17;;;3.20;99.90;;;;;;5071364;28;20212;-81
2022/04/01 06:24:50;;;;;;;5.67;1.70;;;3.20;99.90;;;;;;5071278;28;20962;-85
2022/04/01 06:27:22;;;;;;;5.03;1.43;;;3.20;99.90;;;;;;5070606;28;20178;-84
2022/04/01 06:30:00;;;;;;;2.33;1.20;;;3.20;99.90;;;;;;5072308;28;20220;-79
2022/04/01 06:32:33;;;;;;;7.83;2.60;;;3.30;99.90;;;;;;5053720;28;20217;-84
2022/04/01 06:35:05;;;;;;;3.47;1.47;;;3.30;99.90;;;;;;5050301;28;20195;-84
2022/04/01 06:37:43;;;;;;;4.37;1.83;;;3.40;99.90;;;;;;5050261;28;20579;-78
2022/04/01 06:40:14;;;;;;;2.40;1.43;;;3.40;99.90;;;;;;5049537;28;20317;-77
2022/04/01 06:42:45;;;;;;;5.33;1.03;;;3.50;99.90;;;;;;5049081;28;20201;-86
2022/04/01 06:45:13;;;;;;;2.60;1.40;;;3.50;99.90;;;;;;5050558;28;20521;-82
2022/04/01 06:47:40;;;;;;;4.03;1.43;;;3.50;99.90;;;;;;5057535;28;20219;-78
2022/04/01 06:50:09;;;;;;;3.47;1.80;;;3.50;99.90;;;;;;5069163;28;20271;-79
2022/04/01 06:52:36;;;;;;;2.20;1.20;;;3.50;99.90;;;;;;5072118;28;20235;-87
2022/04/01 06:55:06;;;;;;;1.60;1.27;;;3.50;99.90;;;;;;5054040;28;20213;-84
2022/04/01 06:57:35;;;;;;;2.80;1.20;;;3.60;99.90;;;;;;5052284;28;20213;-87
2022/04/01 07:00:02;;;;;;;6.93;1.50;;;3.60;99.90;;;;;;5052551;28;20213;-78
2022/04/01 07:02:29;;;;;;;3.37;1.10;;;3.70;99.90;;;;;;5053075;28;20586;-87
2022/04/01 07:04:56;;;;;;;1.67;1.00;;;3.70;99.90;;;;;;5053061;28;20280;-86
2022/04/01 07:07:23;;;;;;;1.17;1.00;;;3.80;99.90;;;;;;5052006;28;20248;-84
2022/04/01 07:09:50;;;;;;;1.40;0.87;;;3.70;99.90;;;;;;5050073;28;20593;-82
2022/04/01 07:12:18;;;;;;;2.73;1.20;;;3.70;99.90;;;;;;5051389;28;20316;-83
2022/04/01 07:14:49;;;;;;;1.73;1.20;;;3.70;99.90;;;;;;5056586;28;20256;-82
2022/04/01 07:17:15;;;;;;;4.20;1.20;;;3.80;99.90;;;;;;5059318;28;20217;-83
2022/04/01 07:19:42;;;;;;;3.57;1.30;;;3.80;99.90;;;;;;5070212;28;20621;-84
2022/04/01 07:22:09;;;;;;;3.50;1.53;;;3.90;99.90;;;;;;5069429;28;20208;-79
2022/04/01 07:24:36;;;;;;;3.47;1.37;;;3.90;99.90;;;;;;5068233;28;20300;-80
2022/04/01 07:27:03;;;;;;;3.40;1.57;;;3.90;99.90;;;;;;5049723;28;20198;-80
2022/04/01 07:29:30;;;;;;;2.70;1.40;;;3.90;99.90;;;;;;5047870;28;20234;-79
2022/04/01 07:34:45;;;;;;;7.93;2.07;;;3.90;99.90;;;;;;5067965;28;20872;-81
2022/04/01 07:37:12;;;;;;;3.43;1.70;;;3.90;99.90;;;;;;5066416;28;20201;-81
2022/04/01 07:39:39;;;;;;;3.97;1.83;;;4.00;99.90;;;;;;5066948;28;20212;-82
2022/04/01 07:42:07;;;;;;;5.00;2.00;;;4.00;99.90;;;;;;5066926;28;20244;-82
2022/04/01 07:44:34;;;;;;;3.80;1.80;;;4.10;99.90;;;;;;5048295;28;20609;-81
2022/04/01 07:47:03;;;;;;;2.97;1.53;;;4.10;99.90;;;;;;5052185;28;20216;-81
2022/04/01 07:49:31;;;;;;;4.40;1.80;;;4.20;99.90;;;;;;5058910;28;20205;-81
2022/04/01 07:51:58;;;;;;;8.70;2.67;;;4.20;99.90;;;;;;5052218;28;20194;-81
2022/04/01 07:54:25;;;;;;;6.03;1.40;;;4.30;99.90;;;;;;5047093;28;20216;-82
2022/04/01 07:56:51;;;;;;;3.97;1.90;;;4.30;99.90;;;;;;5048960;28;20205;-81
2022/04/01 07:59:20;;;;;;;2.93;1.40;;;4.30;99.90;;;;;;5050898;28;20252;-81
2022/04/01 08:01:47;;;;;;;6.30;1.73;;;4.30;99.90;;;;;;5045382;28;20300;-79
2022/04/01 08:04:15;;;;;;;2.77;1.50;;;4.30;99.90;;;;;;5044164;28;20217;-78
2022/04/01 08:06:42;;;;;;;4.93;2.47;;;4.30;99.90;;;;;;5044308;28;20209;-80
2022/04/01 08:09:08;;;;;;;6.03;2.67;;;4.40;99.90;;;;;;5043421;28;20212;-78
2022/04/01 08:11:36;;;;;;;3.67;1.60;;;4.50;99.90;;;;;;5042969;28;20213;-80
2022/04/01 08:14:03;;;;;;;3.73;1.77;;;4.50;99.90;;;;;;5043689;28;20316;-82
2022/04/01 08:16:30;;;;;;;4.30;1.87;;;4.60;99.90;;;;;;5050989;28;20535;-83
2022/04/01 08:18:58;;;;;;;2.93;1.73;;;4.60;99.90;;;;;;5067569;28;20355;-81
2022/04/01 08:21:26;;;;;;;3.63;1.70;;;4.60;99.90;;;;;;5068607;28;20209;-83
2022/04/01 08:23:53;;;;;;;3.33;1.70;;;4.70;99.90;;;;;;5068263;28;20310;-81
2022/04/01 08:26:20;;;;;;;3.73;1.97;;;4.60;99.90;;;;;;5055834;28;20234;-84
2022/04/01 08:28:47;;;;;;;3.10;1.83;;;4.60;99.90;;;;;;5047517;28;20880;-79
2022/04/01 08:31:14;;;;;;;3.00;1.50;;;4.60;99.90;;;;;;5047236;28;20604;-80
2022/04/01 08:33:41;;;;;;;5.47;1.70;;;4.60;99.90;;;;;;5044517;28;20214;-76
2022/04/01 08:36:08;;;;;;;5.93;1.60;;;4.70;99.90;;;;;;5044842;28;20217;-79
2022/04/01 08:38:37;;;;;;;5.33;1.73;;;4.70;99.90;;;;;;5046756;28;20202;-79
2022/04/01 08:41:04;;;;;;;4.30;1.40;;;4.70;99.90;;;;;;5046029;28;20265;-80
2022/04/01 08:43:33;;;;;;;4.00;1.63;;;4.60;99.90;;;;;;5045709;28;20206;-80
2022/04/01 08:46:03;;;;;;;4.20;1.40;;;4.60;99.90;;;;;;5046090;28;20222;-79
2022/04/01 08:48:31;;;;;;;6.33;1.83;;;4.70;99.90;;;;;;5057958;28;20235;-83
2022/04/01 08:50:58;;;;;;;3.73;1.83;;;4.90;99.90;;;;;;5065490;28;20312;-80
2022/04/01 08:53:25;;;;;;;4.67;1.57;;;5.00;99.90;;;;;;5065560;28;20208;-80
2022/04/01 08:55:57;;;;;;;3.87;1.50;;;5.10;99.90;;;;;;5067359;28;20324;-80
2022/04/01 08:58:25;;;;;;;6.20;1.90;;;5.20;99.90;;;;;;5051204;28;20395;-80
2022/04/01 09:00:52;;;;;;;3.83;1.63;;;5.30;99.90;;;;;;5049741;28;20253;-80
2022/04/01 09:03:21;;;;;;;4.73;2.00;;;5.30;99.90;;;;;;5049661;28;20208;-81
2022/04/01 09:05:52;;;;;;;6.43;2.40;;;5.40;99.90;;;;;;5049311;28;20226;-80
2022/04/01 09:08:25;;;;;;;5.33;1.50;;;5.60;99.90;;;;;;5048662;28;20201;-81
2022/04/01 09:10:57;;;;;;;3.07;1.77;;;5.60;99.90;;;;;;5049908;28;20205;-82
2022/04/01 09:13:28;;;;;;;3.73;1.70;;;5.70;99.90;;;;;;5049798;28;20768;-84
2022/04/01 09:15:55;;;;;;;4.53;1.50;;;5.70;99.90;;;;;;5048973;28;20529;-79
2022/04/01 09:18:42;;;;;;;3.13;1.60;;;5.70;99.90;;;;;;5049038;28;20204;-79
2022/04/01 09:21:11;;;;;;;4.10;1.33;;;5.70;99.90;;;;;;5061844;28;20240;-78
2022/04/01 09:23:39;;;;;;;4.77;1.50;;;5.80;99.90;;;;;;5065493;28;20871;-80
2022/04/01 09:26:08;;;;;;;3.47;1.87;;;5.90;99.90;;;;;;5051604;28;20222;-83
2022/04/01 09:28:38;;;;;;;5.53;1.70;;;5.90;99.90;;;;;;5050793;28;20218;-85
2022/04/01 09:31:09;;;;;;;3.73;2.00;;;5.90;99.90;;;;;;5051569;28;20876;-78
2022/04/01 09:33:54;;;;;;;5.07;2.23;;;5.80;99.90;;;;;;5050860;28;20213;-81
2022/04/01 09:36:24;;;;;;;10.03;2.57;;;5.80;99.90;;;;;;5049814;28;20202;-82
2022/04/01 09:38:57;;;;;;;5.13;1.73;;;5.90;99.90;;;;;;5050861;28;20205;-82
2022/04/01 09:41:32;;;;;;;3.93;1.97;;;6.10;99.90;;;;;;5050062;28;20241;-80
2022/04/01 09:44:04;;;;;;;8.67;2.47;;;6.00;99.90;;;;;;5049495;28;20182;-79
2022/04/01 09:46:31;;;;;;;2.87;1.77;;;6.00;99.90;;;;;;5048847;28;20222;-80
2022/04/01 09:49:00;;;;;;;7.40;1.97;;;6.10;99.90;;;;;;5049683;28;20205;-81
2022/04/01 09:51:31;;;;;;;4.73;1.70;;;6.00;99.90;;;;;;5047592;28;20562;-81
2022/04/01 09:54:02;;;;;;;3.17;1.43;;;6.10;99.90;;;;;;5048183;28;20922;-79
2022/04/01 09:56:42;;;;;;;3.60;2.10;;;6.00;99.90;;;;;;5048895;28;20844;-78
2022/04/01 09:59:11;;;;;;;2.47;1.50;;;6.00;99.90;;;;;;5048829;28;20209;-82
2022/04/01 10:01:41;;;;;;;7.40;1.40;;;6.00;99.90;;;;;;5055088;28;20886;-79
2022/04/01 10:04:09;;;;;;;3.57;1.87;;;6.00;99.90;;;;;;5070479;28;20197;-84
2022/04/01 10:06:39;;;;;;;6.73;2.27;;;6.00;99.90;;;;;;5069803;28;20225;-80
2022/04/01 10:09:10;;;;;;;2.80;1.70;;;5.90;99.90;;;;;;5069103;28;20201;-82
2022/04/01 10:11:40;;;;;;;3.83;1.77;;;6.00;99.90;;;;;;5049032;28;20521;-81
2022/04/01 10:14:10;;;;;;;2.13;1.30;;;6.00;99.90;;;;;;5050473;28;20234;-84
2022/04/01 10:16:37;;;;;;;4.07;1.60;;;6.20;99.90;;;;;;5050638;28;20606;-79
2022/04/01 10:19:11;;;;;;;5.73;1.80;;;6.10;99.90;;;;;;5050830;28;20197;-82
2022/04/01 10:21:43;;;;;;;3.97;1.50;;;5.90;99.90;;;;;;5051494;28;20267;-83
2022/04/01 10:24:23;;;;;;;2.63;1.67;;;5.90;99.90;;;;;;5051383;28;20550;-83
2022/04/01 10:27:16;;;;;;;3.07;1.80;;;5.80;99.90;;;;;;5050468;28;20226;-83
2022/04/01 10:29:45;;;;;;;3.67;1.73;;;5.90;99.90;;;;;;5051150;28;20900;-83
2022/04/01 10:32:37;;;;;;;1.77;1.57;;;5.70;99.90;;;;;;5050593;28;20238;-84
2022/04/01 10:35:07;;;;;;;5.97;1.60;;;5.80;99.90;;;;;;5050036;28;20217;-84
2022/04/01 10:37:35;;;;;;;3.80;2.03;;;5.80;99.90;;;;;;5051640;28;20206;-83
2022/04/01 10:40:07;;;;;;;2.63;1.60;;;5.90;99.90;;;;;;5049104;28;20884;-84
2022/04/01 10:42:37;;;;;;;6.40;1.53;;;6.00;99.90;;;;;;5050601;28;20521;-85
2022/04/01 10:45:08;;;;;;;3.30;1.80;;;6.10;99.90;;;;;;5054837;28;20212;-82
2022/04/01 10:53:37;;;;;;;5.07;1.53;;;6.10;99.90;;;;;;5052277;28;20236;-84
2022/04/01 10:56:36;;;;;;;4.53;1.60;;;6.20;99.90;;;;;;5049917;28;20190;-85
2022/04/01 10:59:07;;;;;;;1.97;1.23;;;6.10;99.90;;;;;;4996919;28;20194;-83
2022/04/01 11:01:36;;;;;;;2.37;1.30;;;6.00;99.90;;;;;;5059297;28;20605;-83
2022/04/01 11:04:23;;;;;;;1.80;1.23;;;6.00;99.90;;;;;;5071135;28;20194;-83
2022/04/01 11:06:52;;;;;;;3.77;1.30;;;6.10;99.90;;;;;;5055410;28;20218;-84
2022/04/01 11:09:37;;;;;;;2.63;1.40;;;6.10;99.90;;;;;;5050247;28;20280;-84
2022/04/01 11:12:42;;;;;;;2.93;1.30;;;6.20;99.90;;;;;;5052762;28;20201;-81
2022/04/01 11:15:24;;;;;;;3.33;1.73;;;6.20;99.90;;;;;;5053062;28;20826;-82
2022/04/01 11:18:14;;;;;;;5.10;1.80;;;6.30;99.90;;;;;;5050786;28;20259;-83
2022/04/01 11:20:42;;;;;;;4.93;1.53;;;6.30;99.90;;;;;;5056036;28;20220;-83
2022/04/01 11:23:12;;;;;;;3.07;1.43;;;6.30;99.90;;;;;;5066805;28;20291;-82
2022/04/01 11:25:57;;;;;;;3.30;1.90;;;6.20;99.90;;;;;;5069775;28;20540;-86
2022/04/01 11:28:26;;;;;;;3.50;2.03;;;6.20;99.90;;;;;;5067445;28;20212;-82
2022/04/01 11:31:08;;;;;;;2.33;1.40;;;6.40;99.90;;;;;;5049565;28;20214;-82
2022/04/01 11:33:35;;;;;;;3.60;1.17;;;6.40;99.90;;;;;;5049541;28;20237;-86
2022/04/01 11:36:03;;;;;;;3.60;1.67;;;6.40;99.90;;;;;;5048278;28;20292;-81
2022/04/01 11:38:30;;;;;;;1.93;1.30;;;6.40;99.90;;;;;;5048275;28;20217;-80
2022/04/01 11:41:01;;;;;;;2.97;1.57;;;6.50;99.90;;;;;;5047139;28;20303;-83
2022/04/01 11:43:29;;;;;;;2.97;1.37;;;6.40;99.90;;;;;;5045729;28;20210;-84
2022/04/01 11:45:58;;;;;;;3.80;1.40;;;6.60;99.90;;;;;;5046034;28;20225;-79
2022/04/01 11:48:30;;;;;;;3.23;1.97;;;6.60;99.90;;;;;;5058599;28;20213;-81
2022/04/01 11:50:59;;;;;;;4.33;1.87;;;6.50;99.90;;;;;;5064745;28;20447;-82
2022/04/01 11:53:27;;;;;;;2.90;1.43;;;6.50;99.90;;;;;;5066444;28;20550;-81
2022/04/01 11:55:55;;;;;;;2.13;1.47;;;6.50;99.90;;;;;;5065991;28;20204;-80
2022/04/01 11:58:24;;;;;;;5.33;1.87;;;6.50;99.90;;;;;;5050598;28;20206;-78
2022/04/01 12:00:51;;;;;;;1.80;1.30;;;6.50;99.90;;;;;;5045784;28;20202;-80
2022/04/01 12:03:19;;;;;;;2.57;1.47;;;6.50;99.90;;;;;;5054592;28;20209;-80
2022/04/01 12:05:52;;;;;;;1.73;1.17;;;6.70;99.90;;;;;;5065383;28;20924;-81
2022/04/01 12:11:07;;;;;;;4.07;1.60;;;6.50;99.90;;;;;;5045735;28;20181;-81
2022/04/01 12:13:34;;;;;;;1.90;1.47;;;6.50;99.90;;;;;;5046015;28;20222;-80
2022/04/01 12:16:01;;;;;;;3.33;1.80;;;6.40;99.90;;;;;;5047211;28;20596;-82
2022/04/01 12:18:29;;;;;;;3.67;1.23;;;6.30;99.90;;;;;;5046170;28;20222;-82
2022/04/01 12:21:00;;;;;;;2.63;1.10;;;6.30;99.90;;;;;;5056495;28;20240;-82
2022/04/01 12:23:30;;;;;;;3.97;1.40;;;6.30;99.90;;;;;;5066872;28;20516;-82
2022/04/01 12:25:58;;;;;;;2.67;1.60;;;6.30;99.90;;;;;;5051172;28;20230;-81
2022/04/01 12:28:27;;;;;;;2.17;1.40;;;6.30;99.90;;;;;;5066069;28;20408;-84
2022/04/01 12:30:56;;;;;;;3.53;1.77;;;6.40;99.90;;;;;;5068119;28;20233;-82
2022/04/01 12:33:25;;;;;;;4.70;1.60;;;6.50;99.90;;;;;;5068497;28;20201;-82
2022/04/01 12:36:02;;;;;;;3.80;1.50;;;6.50;99.90;;;;;;5062641;28;20590;-83
2022/04/01 12:38:31;;;;;;;3.40;1.50;;;6.60;99.90;;;;;;5049361;28;20217;-84
2022/04/01 12:41:00;;;;;;;3.17;1.50;;;6.50;99.90;;;;;;5064373;28;21025;-84
2022/04/01 12:43:31;;;;;;;2.37;1.30;;;6.50;99.90;;;;;;5069240;28;20251;-83
2022/04/01 12:45:59;;;;;;;3.53;1.33;;;6.50;99.90;;;;;;5052468;28;20240;-82
2022/04/01 12:48:28;;;;;;;5.57;2.00;;;6.40;99.90;;;;;;5049041;28;20241;-83
2022/04/01 12:51:03;;;;;;;3.60;2.03;;;6.40;99.90;;;;;;5082064;28;20200;-83
2022/04/01 12:53:30;;;;;;;2.40;1.50;;;6.60;99.90;;;;;;5072251;28;20209;-84
2022/04/01 12:56:18;;;;;;;3.87;1.87;;;6.60;99.90;;;;;;5049693;28;20208;-86
2022/04/01 12:58:52;;;;;;;5.97;1.33;;;6.90;99.90;;;;;;5047296;28;20237;-85
2022/04/01 13:01:25;;;;;;;3.33;2.10;;;7.00;99.90;;;;;;5048565;28;20206;-84
2022/04/01 13:03:52;;;;;;;3.00;1.37;;;6.80;99.90;;;;;;5050271;28;20775;-84
2022/04/01 13:06:23;;;;;;;3.57;1.30;;;6.60;99.90;;;;;;5049674;28;20233;-86
2022/04/01 13:09:03;;;;;;;2.80;1.53;;;6.50;99.90;;;;;;5062162;28;20208;-87
2022/04/01 13:11:38;;;;;;;5.47;1.83;;;6.70;99.90;;;;;;5070243;28;20601;-86
2022/04/01 13:14:05;;;;;;;5.77;1.60;;;6.70;99.90;;;;;;5055899;28;20352;-89
2022/04/01 13:16:37;;;;;;;3.73;1.40;;;6.50;99.90;;;;;;5052925;28;20532;-88
2022/04/01 13:19:37;;;;;;;1.87;1.20;;;6.70;99.90;;;;;;5050383;28;20274;-88
2022/04/01 13:22:07;;;;;;;3.57;1.33;;;6.80;99.90;;;;;;4988812;28;20314;-89
2022/04/01 13:24:37;;;;;;;3.83;1.43;;;6.80;99.90;;;;;;5040228;28;20206;-91
2022/04/01 13:27:05;;;;;;;4.67;1.33;;;6.80;99.90;;;;;;5091754;28;20247;-94
2022/04/01 13:29:33;;;;;;;4.40;1.60;;;6.90;99.90;;;;;;5092358;28;20201;-88